createdAt,value
2019-05-29T00:00:32.721Z,101027.30
2019-05-29T00:03:06.592Z,101028.25
2019-05-29T00:05:38.884Z,101020.61
2019-05-29T00:08:12.281Z,101021.25
2019-05-29T00:10:44.621Z,101016.95
2019-05-29T00:13:16.957Z,101018.33
2019-05-29T00:15:49.130Z,101023.98
2019-05-29T00:18:21.354Z,101020.05
2019-05-29T00:20:53.423Z,101024.49
2019-05-29T00:23:25.617Z,101026.30
2019-05-29T00:25:57.916Z,101023.95
2019-05-29T00:28:30.169Z,101022.27
2019-05-29T00:31:02.408Z,101024.16
2019-05-29T00:33:34.752Z,101023.64
2019-05-29T00:36:08.141Z,101025.11
2019-05-29T00:38:40.536Z,101019.28
2019-05-29T00:41:13.035Z,101026.70
2019-05-29T00:43:45.360Z,101027.33
2019-05-29T00:46:17.667Z,101022.98
2019-05-29T00:48:50.018Z,101025.22
2019-05-29T00:51:23.863Z,101012.79
2019-05-29T00:53:56.592Z,101013.75
2019-05-29T00:56:28.954Z,101008.31
2019-05-29T00:59:01.273Z,101002.18
2019-05-29T01:01:33.655Z,101000.37
2019-05-29T01:04:05.974Z,101002.27
2019-05-29T01:06:38.270Z,100994.81
2019-05-29T01:09:10.513Z,100989.72
2019-05-29T01:11:42.711Z,100997.28
2019-05-29T01:14:15.208Z,100994.41
2019-05-29T01:16:47.407Z,101003.75
2019-05-29T01:19:25.838Z,101005.16
2019-05-29T01:21:58.128Z,101002.98
2019-05-29T01:24:30.394Z,101007.03
2019-05-29T01:27:02.598Z,101009.14
2019-05-29T01:29:34.810Z,101011.27
2019-05-29T01:32:07.014Z,101002.88
2019-05-29T01:34:39.172Z,101006.27
2019-05-29T01:37:11.423Z,101006.27
2019-05-29T01:39:43.873Z,101008.38
2019-05-29T01:42:17.247Z,101010.16
2019-05-29T01:45:03.846Z,101012.52
2019-05-29T01:47:23.748Z,101010.38
2019-05-29T01:49:56.001Z,101011.53
2019-05-29T01:52:28.274Z,101010.59
2019-05-29T01:55:00.590Z,101009.31
2019-05-29T01:57:32.867Z,101017.58
2019-05-29T02:00:08.159Z,101019.30
2019-05-29T02:02:40.516Z,101025.98
2019-05-29T02:05:12.670Z,101030.66
2019-05-29T02:07:44.877Z,101028.41
2019-05-29T02:10:18.255Z,101032.65
2019-05-29T02:12:51.737Z,101035.95
2019-05-29T02:15:32.015Z,101041.59
2019-05-29T02:17:57.935Z,101042.14
2019-05-29T02:20:30.195Z,101046.16
2019-05-29T02:23:02.509Z,101047.37
2019-05-29T02:25:34.783Z,101052.05
2019-05-29T02:28:06.945Z,101055.91
2019-05-29T02:30:39.317Z,101052.41
2019-05-29T02:33:11.876Z,101050.64
2019-05-29T02:35:44.199Z,101053.70
2019-05-29T02:38:16.410Z,101043.19
2019-05-29T02:40:49.171Z,101038.25
2019-05-29T02:43:23.389Z,101040.39
2019-05-29T02:45:55.564Z,101043.29
2019-05-29T02:48:29.590Z,101050.89
2019-05-29T02:51:01.896Z,101049.14
2019-05-29T02:53:34.075Z,101048.18
2019-05-29T02:56:06.267Z,101048.06
2019-05-29T02:58:38.452Z,101052.59
2019-05-29T03:01:10.735Z,101057.84
2019-05-29T03:03:43.052Z,101048.76
2019-05-29T03:06:15.410Z,101052.58
2019-05-29T03:08:49.184Z,101054.65
2019-05-29T03:11:22.907Z,101050.68
2019-05-29T03:13:55.303Z,101052.27
2019-05-29T03:16:28.754Z,101058.97
2019-05-29T03:19:01.527Z,101059.02
2019-05-29T03:21:34.732Z,101051.50
2019-05-29T03:24:07.181Z,101052.45
2019-05-29T03:26:39.439Z,101048.00
2019-05-29T03:29:11.684Z,101060.25
2019-05-29T03:31:47.575Z,101066.22
2019-05-29T03:34:17.918Z,101054.13
2019-05-29T03:36:50.217Z,101053.81
2019-05-29T03:39:22.439Z,101055.77
2019-05-29T03:41:55.544Z,101053.34
2019-05-29T03:44:28.689Z,101049.72
2019-05-29T03:47:01.581Z,101052.78
2019-05-29T03:49:37.259Z,101050.53
2019-05-29T03:52:09.457Z,101054.47
2019-05-29T03:54:41.764Z,101048.50
2019-05-29T03:57:14.063Z,101049.35
2019-05-29T03:59:46.328Z,101047.86
2019-05-29T04:02:18.666Z,101050.06
2019-05-29T04:04:50.856Z,101051.63
2019-05-29T04:07:23.199Z,101054.06
2019-05-29T04:09:55.338Z,101056.40
2019-05-29T04:12:29.353Z,101057.06
2019-05-29T04:15:01.596Z,101060.23
2019-05-29T04:17:37.955Z,101058.06
2019-05-29T04:20:10.361Z,101058.80
2019-05-29T04:22:46.512Z,101071.82
2019-05-29T04:25:17.716Z,101066.95
2019-05-29T04:27:51.277Z,101066.44
2019-05-29T04:30:23.429Z,101066.11
2019-05-29T04:32:55.687Z,101060.87
2019-05-29T04:35:28.279Z,101061.42
2019-05-29T04:38:00.601Z,101062.84
2019-05-29T04:40:33.393Z,101069.34
2019-05-29T04:43:06.947Z,101071.61
2019-05-29T04:45:40.708Z,101073.30
2019-05-29T04:48:24.462Z,101079.60
2019-05-29T04:50:56.840Z,101085.14
2019-05-29T04:53:29.543Z,101087.13
2019-05-29T04:56:03.338Z,101090.98
2019-05-29T04:58:35.557Z,101076.66
2019-05-29T05:01:08.362Z,101080.09
2019-05-29T05:03:40.624Z,101079.53
2019-05-29T05:06:12.913Z,101079.90
2019-05-29T05:08:45.129Z,101076.51
2019-05-29T05:11:17.629Z,101078.20
2019-05-29T05:13:49.975Z,101085.09
2019-05-29T05:16:22.385Z,101077.05
2019-05-29T05:18:54.501Z,101078.95
2019-05-29T05:21:28.362Z,101078.08
2019-05-29T05:24:00.446Z,101081.58
2019-05-29T05:26:32.776Z,101084.66
2019-05-29T05:29:05.177Z,101090.16
2019-05-29T05:31:38.547Z,101083.78
2019-05-29T05:34:10.942Z,101085.73
2019-05-29T05:36:43.213Z,101083.00
2019-05-29T05:39:15.505Z,101087.48
2019-05-29T05:41:47.518Z,101087.19
2019-05-29T05:44:19.887Z,101089.99
2019-05-29T05:46:51.966Z,101090.45
2019-05-29T05:49:24.192Z,101094.31
2019-05-29T05:51:56.442Z,101094.38
2019-05-29T05:54:29.732Z,101092.14
2019-05-29T05:57:01.953Z,101095.09
2019-05-29T05:59:34.108Z,101096.88
2019-05-29T06:02:08.338Z,101103.15
2019-05-29T06:04:42.066Z,101113.23
2019-05-29T06:07:14.477Z,101104.34
2019-05-29T06:09:46.768Z,101109.10
2019-05-29T06:12:19.035Z,101108.45
2019-05-29T06:14:51.285Z,101100.05
2019-05-29T06:17:23.481Z,101111.70
2019-05-29T06:19:55.606Z,101109.21
2019-05-29T06:22:27.732Z,101114.66
2019-05-29T06:24:59.922Z,101125.48
2019-05-29T06:27:34.046Z,101128.17
2019-05-29T06:30:09.296Z,101134.90
2019-05-29T06:32:44.013Z,101139.59
2019-05-29T06:35:19.185Z,101140.05
2019-05-29T06:37:53.880Z,101134.21
2019-05-29T06:40:41.968Z,101139.39
2019-05-29T06:43:24.904Z,101135.64
2019-05-29T06:45:57.266Z,101132.76
2019-05-29T06:48:42.966Z,101134.53
2019-05-29T06:51:03.802Z,101121.77
2019-05-29T06:53:36.009Z,101130.86
2019-05-29T06:56:08.227Z,101131.13
2019-05-29T06:58:40.555Z,101128.08
2019-05-29T07:01:12.758Z,101126.41
2019-05-29T07:03:45.028Z,101125.14
2019-05-29T07:06:17.313Z,101120.60
2019-05-29T07:08:50.328Z,101115.17
2019-05-29T07:11:22.741Z,101113.97
2019-05-29T07:13:55.054Z,101107.20
2019-05-29T07:16:43.125Z,101112.14
2019-05-29T07:19:25.341Z,101113.69
2019-05-29T07:21:36.679Z,101119.02
2019-05-29T07:24:09.254Z,101105.04
2019-05-29T07:26:41.383Z,101103.50
2019-05-29T07:29:13.599Z,101099.92
2019-05-29T07:31:47.012Z,101093.66
2019-05-29T07:34:20.628Z,101094.06
2019-05-29T07:36:52.659Z,101094.87
2019-05-29T07:39:24.752Z,101079.70
2019-05-29T07:41:56.994Z,101079.30
2019-05-29T07:44:29.122Z,101076.41
2019-05-29T07:47:01.345Z,101067.26
2019-05-29T07:49:38.930Z,101070.64
2019-05-29T07:52:07.299Z,101047.31
2019-05-29T07:54:39.972Z,101063.95
2019-05-29T07:57:12.592Z,101063.47
2019-05-29T07:59:44.877Z,101068.34
2019-05-29T08:02:16.988Z,101064.11
2019-05-29T08:04:49.821Z,101065.88
2019-05-29T08:07:22.540Z,101076.89
2019-05-29T08:09:54.686Z,101074.10
2019-05-29T08:12:27.064Z,101070.64
2019-05-29T08:14:59.366Z,101069.34
2019-05-29T08:17:32.865Z,101064.87
2019-05-29T08:20:07.965Z,101065.78
2019-05-29T08:22:40.487Z,101060.92
2019-05-29T08:25:13.503Z,101068.55
2019-05-29T08:27:46.658Z,101071.31
2019-05-29T08:30:19.470Z,101064.78
2019-05-29T08:32:51.819Z,101066.21
2019-05-29T08:35:23.910Z,101062.62
2019-05-29T08:37:56.218Z,101069.14
2019-05-29T08:40:28.459Z,101061.50
2019-05-29T08:43:00.499Z,101054.95
2019-05-29T08:45:32.572Z,101067.84
2019-05-29T08:48:04.935Z,101060.94
2019-05-29T08:50:37.253Z,101058.46
2019-05-29T08:53:09.589Z,101055.11
2019-05-29T08:55:42.063Z,101057.10
2019-05-29T08:58:14.427Z,101059.91
2019-05-29T09:00:50.552Z,101050.64
2019-05-29T09:03:20.782Z,101052.59
2019-05-29T09:06:07.933Z,101049.53
2019-05-29T09:08:28.289Z,101044.48
2019-05-29T09:11:00.750Z,101041.42
2019-05-29T09:13:32.908Z,101037.75
2019-05-29T09:16:05.223Z,101036.06
2019-05-29T09:18:37.374Z,101038.58
2019-05-29T09:21:09.679Z,101036.06
2019-05-29T09:23:41.970Z,101038.30
2019-05-29T09:26:20.674Z,101037.78
2019-05-29T09:28:48.221Z,101034.98
2019-05-29T09:31:21.875Z,101032.16
2019-05-29T09:33:54.376Z,101029.05
2019-05-29T09:36:26.522Z,101030.20
2019-05-29T09:38:58.813Z,101019.22
2019-05-29T09:41:31.088Z,101023.73
2019-05-29T09:44:03.311Z,101024.29
2019-05-29T09:46:35.416Z,101018.39
2019-05-29T09:49:07.520Z,101022.34
2019-05-29T09:51:39.677Z,101012.52
2019-05-29T09:54:11.737Z,101008.02
2019-05-29T09:56:44.096Z,101014.20
2019-05-29T09:59:16.342Z,101013.08
2019-05-29T10:01:48.522Z,101010.55
2019-05-29T10:04:20.608Z,101008.55
2019-05-29T10:06:53.137Z,101011.09
2019-05-29T10:09:26.585Z,101009.40
2019-05-29T10:12:03.270Z,101002.08
2019-05-29T10:14:32.724Z,101000.37
2019-05-29T10:17:09.251Z,101003.98
2019-05-29T10:19:38.725Z,101000.56
2019-05-29T10:22:10.771Z,100997.48
2019-05-29T10:24:43.339Z,101002.59
2019-05-29T10:27:15.455Z,100995.06
2019-05-29T10:29:50.257Z,100989.16
2019-05-29T10:32:21.692Z,100981.00
2019-05-29T10:34:53.928Z,100976.77
2019-05-29T10:37:26.168Z,100983.67
2019-05-29T10:39:58.411Z,100967.80
2019-05-29T10:42:30.482Z,100963.34
2019-05-29T10:45:02.748Z,100957.55
2019-05-29T10:47:36.464Z,100945.05
2019-05-29T10:50:10.244Z,100946.95
2019-05-29T10:52:43.740Z,100945.22
2019-05-29T10:55:18.988Z,100945.78
2019-05-29T10:57:53.081Z,100932.73
2019-05-29T11:00:25.683Z,100942.93
2019-05-29T11:03:00.663Z,100931.16
2019-05-29T11:05:32.801Z,100922.95
2019-05-29T11:08:05.092Z,100916.95
2019-05-29T11:10:37.131Z,100913.95
2019-05-29T11:13:09.399Z,100910.29
2019-05-29T11:15:41.463Z,100903.29
2019-05-29T11:18:13.640Z,100890.96
2019-05-29T11:20:47.180Z,100876.27
2019-05-29T11:23:20.989Z,100890.77
2019-05-29T11:25:54.002Z,100884.84
2019-05-29T11:28:27.150Z,100883.77
2019-05-29T11:31:05.212Z,100877.23
2019-05-29T11:33:35.548Z,100875.78
2019-05-29T11:36:13.038Z,100872.53
2019-05-29T11:38:43.742Z,100875.78
2019-05-29T11:41:25.858Z,100871.02
2019-05-29T11:43:51.208Z,100870.68
2019-05-29T11:46:27.455Z,100872.23
2019-05-29T11:48:59.566Z,100870.34
2019-05-29T11:51:31.906Z,100866.48
2019-05-29T11:54:03.930Z,100870.37
2019-05-29T11:56:36.060Z,100863.02
2019-05-29T11:59:08.072Z,100845.80
2019-05-29T12:01:50.092Z,100844.61
2019-05-29T12:04:25.706Z,100850.45
2019-05-29T12:06:47.671Z,100844.53
2019-05-29T12:09:32.061Z,100845.18
2019-05-29T12:11:54.077Z,100839.16
2019-05-29T12:14:26.844Z,100837.38
2019-05-29T12:17:00.413Z,100836.64
2019-05-29T12:19:32.778Z,100832.25
2019-05-29T12:22:05.065Z,100832.25
2019-05-29T12:24:37.157Z,100835.62
2019-05-29T12:27:09.876Z,100833.27
2019-05-29T12:29:42.146Z,100830.75
2019-05-29T12:32:14.295Z,100832.93
2019-05-29T12:34:53.724Z,100830.84
2019-05-29T12:37:20.327Z,100825.89
2019-05-29T12:39:53.245Z,100826.63
2019-05-29T12:42:25.434Z,100824.57
2019-05-29T12:44:57.729Z,100822.40
2019-05-29T12:47:29.984Z,100817.24
2019-05-29T12:50:02.660Z,100809.84
2019-05-29T12:52:35.851Z,100803.56
2019-05-29T12:55:09.475Z,100791.15
2019-05-29T12:57:41.540Z,100783.70
2019-05-29T13:00:16.649Z,100777.72
2019-05-29T13:02:48.904Z,100779.73
2019-05-29T13:05:21.211Z,100797.48
2019-05-29T13:07:54.731Z,100798.78
2019-05-29T13:10:31.030Z,100794.11
2019-05-29T13:13:06.757Z,100783.11
2019-05-29T13:15:35.285Z,100784.05
2019-05-29T13:18:09.945Z,100782.48
2019-05-29T13:20:41.219Z,100791.49
2019-05-29T13:23:13.336Z,100803.05
2019-05-29T13:25:45.606Z,100812.31
2019-05-29T13:28:17.775Z,100823.21
2019-05-29T13:30:49.942Z,100833.06
2019-05-29T13:33:22.166Z,100829.39
2019-05-29T13:35:54.132Z,100833.45
2019-05-29T13:38:26.351Z,100831.23
2019-05-29T13:40:58.508Z,100836.63
2019-05-29T13:43:30.547Z,100837.95
2019-05-29T13:46:02.811Z,100840.79
2019-05-29T13:48:34.858Z,100843.31
2019-05-29T13:51:07.388Z,100848.89
2019-05-29T13:53:39.607Z,100855.24
2019-05-29T13:56:11.699Z,100857.14
2019-05-29T13:58:43.690Z,100863.53
2019-05-29T14:01:15.860Z,100858.36
2019-05-29T14:03:50.680Z,100865.76
2019-05-29T14:06:21.781Z,100859.50
2019-05-29T14:08:53.925Z,100859.50
2019-05-29T14:11:25.984Z,100864.75
2019-05-29T14:13:59.166Z,100867.97
2019-05-29T14:16:31.292Z,100863.73
2019-05-29T14:19:04.787Z,100866.16
2019-05-29T14:21:37.077Z,100861.38
2019-05-29T14:24:26.293Z,100863.73
2019-05-29T14:26:42.908Z,100857.55
2019-05-29T14:29:15.026Z,100853.98
2019-05-29T14:31:47.156Z,100866.59
2019-05-29T14:34:19.344Z,100863.83
2019-05-29T14:36:51.565Z,100862.22
2019-05-29T14:39:23.577Z,100858.59
2019-05-29T14:41:55.608Z,100852.35
2019-05-29T14:44:27.938Z,100854.32
2019-05-29T14:46:59.901Z,100856.02
2019-05-29T14:49:31.907Z,100853.19
2019-05-29T14:52:04.530Z,100858.05
2019-05-29T14:54:41.949Z,100856.12
2019-05-29T14:57:22.636Z,100860.38
2019-05-29T14:59:44.654Z,100860.98
2019-05-29T15:02:23.553Z,100865.28
2019-05-29T15:04:50.749Z,100866.42
2019-05-29T15:07:23.184Z,100869.86
2019-05-29T15:09:55.321Z,100876.27
2019-05-29T15:12:28.386Z,100874.61
2019-05-29T15:15:00.995Z,100877.45
2019-05-29T15:17:33.259Z,100872.38
2019-05-29T15:20:09.912Z,100881.08
2019-05-29T15:22:42.699Z,100880.11
2019-05-29T15:25:23.709Z,100880.66
2019-05-29T15:27:49.257Z,100884.65
2019-05-29T15:30:23.499Z,100886.88
2019-05-29T15:32:55.525Z,100890.23
2019-05-29T15:35:27.641Z,100883.83
2019-05-29T15:37:59.902Z,100885.82
2019-05-29T15:40:33.111Z,100887.25
2019-05-29T15:43:06.530Z,100879.41
2019-05-29T15:45:38.873Z,100883.39
2019-05-29T15:48:11.058Z,100886.19
2019-05-29T15:50:43.109Z,100885.66
2019-05-29T15:53:15.270Z,100890.77
2019-05-29T15:55:47.270Z,100889.66
2019-05-29T15:58:19.490Z,100882.36
2019-05-29T16:00:51.759Z,100886.31
2019-05-29T16:03:23.890Z,100892.52
2019-05-29T16:05:57.031Z,100885.50
2019-05-29T16:08:29.029Z,100886.38
2019-05-29T16:11:01.086Z,100884.45
2019-05-29T16:13:33.319Z,100886.72
2019-05-29T16:16:06.880Z,100886.17
2019-05-29T16:18:39.161Z,100886.20
2019-05-29T16:21:12.543Z,100887.33
2019-05-29T16:23:44.635Z,100885.36
2019-05-29T16:26:18.548Z,100892.40
2019-05-29T16:28:50.568Z,100887.36
2019-05-29T16:31:23.062Z,100879.50
2019-05-29T16:33:55.208Z,100887.08
2019-05-29T16:36:27.418Z,100887.09
2019-05-29T16:38:59.600Z,100885.13
2019-05-29T16:41:31.702Z,100883.72
2019-05-29T16:44:04.474Z,100881.20
2019-05-29T16:46:36.701Z,100884.28
2019-05-29T16:49:08.668Z,100884.28
2019-05-29T16:51:42.045Z,100884.52
2019-05-29T16:54:14.898Z,100887.90
2019-05-29T16:56:47.213Z,100885.91
2019-05-29T16:59:19.421Z,100879.19
2019-05-29T17:01:51.634Z,100874.99
2019-05-29T17:04:24.021Z,100878.36
2019-05-29T17:06:56.405Z,100882.25
2019-05-29T17:09:28.611Z,100884.77
2019-05-29T17:12:00.957Z,100890.91
2019-05-29T17:14:33.217Z,100890.31
2019-05-29T17:17:05.461Z,100881.05
2019-05-29T17:19:37.646Z,100886.36
2019-05-29T17:22:09.941Z,100884.61
2019-05-29T17:24:42.002Z,100880.36
2019-05-29T17:27:14.573Z,100892.92
2019-05-29T17:29:46.820Z,100886.42
2019-05-29T17:32:19.218Z,100885.81
2019-05-29T17:34:51.405Z,100894.13
2019-05-29T17:37:25.092Z,100892.90
2019-05-29T17:39:57.654Z,100891.46
2019-05-29T17:42:30.027Z,100896.73
2019-05-29T17:45:02.662Z,100901.43
2019-05-29T17:47:35.180Z,100899.67
2019-05-29T17:50:08.251Z,100899.36
2019-05-29T17:52:40.594Z,100904.90
2019-05-29T17:55:12.896Z,100908.17
2019-05-29T17:57:45.088Z,100911.14
2019-05-29T18:00:20.527Z,100920.23
2019-05-29T18:02:53.151Z,100921.58
2019-05-29T18:05:26.680Z,100929.34
2019-05-29T18:08:01.605Z,100923.97
2019-05-29T18:10:32.715Z,100930.64
2019-05-29T18:13:04.944Z,100927.19
2019-05-29T18:15:37.086Z,100925.79
2019-05-29T18:18:11.376Z,100933.83
2019-05-29T18:20:43.524Z,100937.42
2019-05-29T18:23:15.812Z,100939.33
2019-05-29T18:25:48.214Z,100937.02
2019-05-29T18:28:20.339Z,100938.41
2019-05-29T18:30:52.487Z,100939.98
2019-05-29T18:33:27.152Z,100943.62
2019-05-29T18:35:59.509Z,100940.77
2019-05-29T18:38:32.754Z,100939.53
2019-05-29T18:41:06.208Z,100949.50
2019-05-29T18:43:38.414Z,100956.13
2019-05-29T18:46:10.577Z,100959.70
2019-05-29T18:48:43.751Z,100957.69
2019-05-29T18:51:15.887Z,100958.08
2019-05-29T18:53:47.951Z,100959.70
2019-05-29T18:56:20.319Z,100960.91
2019-05-29T18:58:52.524Z,100965.64
2019-05-29T19:01:25.439Z,100963.62
2019-05-29T19:03:59.085Z,100961.29
2019-05-29T19:06:31.904Z,100961.97
2019-05-29T19:09:05.618Z,100960.81
2019-05-29T19:11:37.878Z,100966.77
2019-05-29T19:14:10.234Z,100960.09
2019-05-29T19:16:42.993Z,100964.78
2019-05-29T19:19:16.088Z,100962.76
2019-05-29T19:21:48.332Z,100960.00
2019-05-29T19:24:20.649Z,100959.59
2019-05-29T19:26:52.750Z,100957.86
2019-05-29T19:29:26.928Z,100953.59
2019-05-29T19:31:59.312Z,100952.13
2019-05-29T19:34:31.650Z,100944.91
2019-05-29T19:37:03.951Z,100939.48
2019-05-29T19:39:36.148Z,100947.77
2019-05-29T19:42:08.479Z,100954.23
2019-05-29T19:44:40.473Z,100958.98
2019-05-29T19:47:12.762Z,100945.36
2019-05-29T19:49:44.998Z,100955.77
2019-05-29T19:52:17.265Z,100944.08
2019-05-29T19:54:50.024Z,100950.48
2019-05-29T19:57:22.024Z,100950.48
2019-05-29T19:59:54.364Z,100947.69
2019-05-29T20:02:26.642Z,100945.36
2019-05-29T20:04:58.794Z,100947.00
2019-05-29T20:07:31.090Z,100946.38
2019-05-29T20:10:03.952Z,100947.77
2019-05-29T20:12:36.218Z,100940.75
2019-05-29T20:15:08.888Z,100948.25
2019-05-29T20:17:40.995Z,100940.72
2019-05-29T20:20:13.251Z,100945.44
2019-05-29T20:22:45.437Z,100938.37
2019-05-29T20:25:17.650Z,100946.11
2019-05-29T20:28:05.252Z,100946.91
2019-05-29T20:30:23.761Z,100948.30
2019-05-29T20:32:55.916Z,100951.69
2019-05-29T20:35:27.953Z,100951.08
2019-05-29T20:38:00.219Z,100952.61
2019-05-29T20:40:33.018Z,100951.25
2019-05-29T20:43:08.338Z,100949.66
2019-05-29T20:45:43.425Z,100945.64
2019-05-29T20:48:15.826Z,100945.25
2019-05-29T20:50:48.903Z,100951.17
2019-05-29T20:53:21.097Z,100944.23
2019-05-29T20:55:53.194Z,100942.95
2019-05-29T20:58:25.345Z,100943.71
2019-05-29T21:00:57.611Z,100946.59
2019-05-29T21:03:30.527Z,100940.27
2019-05-29T21:06:05.053Z,100945.30
2019-05-29T21:08:37.144Z,100941.08
2019-05-29T21:11:09.331Z,100940.27
2019-05-29T21:13:41.579Z,100943.05
2019-05-29T21:16:13.810Z,100936.05
2019-05-29T21:18:46.008Z,100943.36
2019-05-29T21:21:18.144Z,100941.50
2019-05-29T21:23:50.118Z,100948.45
2019-05-29T21:26:22.268Z,100948.77
2019-05-29T21:28:56.166Z,100946.81
2019-05-29T21:31:28.225Z,100951.87
2019-05-29T21:34:00.418Z,100949.66
2019-05-29T21:36:37.987Z,100944.97
2019-05-29T21:39:15.704Z,100943.07
2019-05-29T21:41:48.652Z,100946.65
2019-05-29T21:44:20.717Z,100947.47
2019-05-29T21:46:52.982Z,100948.87
2019-05-29T21:49:31.546Z,100944.97
2019-05-29T21:52:03.221Z,100944.11
2019-05-29T21:54:35.185Z,100947.12
2019-05-29T21:57:08.394Z,100953.49
2019-05-29T21:59:40.356Z,100956.98
2019-05-29T22:02:12.809Z,100964.52
2019-05-29T22:04:46.171Z,100962.30
2019-05-29T22:07:18.733Z,100965.05
2019-05-29T22:09:50.695Z,100966.47
2019-05-29T22:12:23.704Z,100962.52
2019-05-29T22:14:56.846Z,100962.92
2019-05-29T22:17:29.195Z,100957.89
2019-05-29T22:20:01.289Z,100960.33
2019-05-29T22:22:33.621Z,100970.89
2019-05-29T22:25:07.558Z,100961.59
2019-05-29T22:27:40.746Z,100963.73
2019-05-29T22:30:13.305Z,100961.20
2019-05-29T22:32:45.541Z,100962.14
2019-05-29T22:35:17.628Z,100961.72
2019-05-29T22:37:49.693Z,100964.75
2019-05-29T22:40:22.678Z,100962.82
2019-05-29T22:42:55.610Z,100962.97
2019-05-29T22:45:27.615Z,100957.69
2019-05-29T22:48:00.159Z,100970.46
2019-05-29T22:50:32.247Z,100966.97
2019-05-29T22:53:04.401Z,100963.29
2019-05-29T22:55:36.442Z,100970.99
2019-05-29T22:58:08.624Z,100975.66
2019-05-29T23:00:40.759Z,100980.96
2019-05-29T23:03:13.039Z,100975.04
2019-05-29T23:05:45.317Z,100976.03
2019-05-29T23:08:17.431Z,100977.80
2019-05-29T23:10:49.714Z,100978.69
2019-05-29T23:13:22.029Z,100980.05
2019-05-29T23:15:54.500Z,100980.38
2019-05-29T23:18:26.866Z,100980.48
2019-05-29T23:21:00.630Z,100984.91
2019-05-29T23:23:32.939Z,100976.31
2019-05-29T23:26:05.030Z,100976.20
2019-05-29T23:28:37.465Z,100987.41
2019-05-29T23:31:09.644Z,100981.97
2019-05-29T23:33:41.815Z,100981.93
2019-05-29T23:36:14.034Z,100983.66
2019-05-29T23:38:46.378Z,100979.28
2019-05-29T23:41:18.475Z,100985.58
2019-05-29T23:43:50.560Z,100982.87
2019-05-29T23:46:22.762Z,100988.55
2019-05-29T23:48:55.403Z,100987.03
2019-05-29T23:51:27.923Z,100989.44
2019-05-29T23:54:00.311Z,100989.38
2019-05-29T23:56:32.653Z,100981.34
2019-05-29T23:59:04.911Z,100980.84
